sensor_id;sensor_type;location;lat;lon;timestamp;P1;durP1;ratioP1;P2;durP2;ratioP2
19406;SDS011;9839;53.364;-1.204;2024-03-07T00:01:14;32.10;;;13.27;;
19406;SDS011;9839;53.364;-1.204;2024-03-07T00:03:39;31.00;;;14.07;;
19406;SDS011;9839;53.364;-1.204;2024-03-07T00:06:05;33.07;;;14.30;;
19406;SDS011;9839;53.364;-1.204;2024-03-07T00:08:30;38.57;;;15.77;;
19406;SDS011;9839;53.364;-1.204;2024-03-07T00:10:56;39.03;;;16.33;;
19406;SDS011;9839;53.364;-1.204;2024-03-07T00:13:21;45.17;;;17.43;;
19406;SDS011;9839;53.364;-1.204;2024-03-07T00:15:46;44.43;;;17.83;;
19406;SDS011;9839;53.364;-1.204;2024-03-07T00:18:12;37.60;;;16.13;;
19406;SDS011;9839;53.364;-1.204;2024-03-07T00:20:40;41.13;;;17.00;;
19406;SDS011;9839;53.364;-1.204;2024-03-07T00:23:05;45.63;;;17.80;;
19406;SDS011;9839;53.364;-1.204;2024-03-07T00:25:31;43.30;;;17.03;;
19406;SDS011;9839;53.364;-1.204;2024-03-07T00:27:57;39.40;;;16.23;;
19406;SDS011;9839;53.364;-1.204;2024-03-07T00:30:27;39.10;;;16.27;;
19406;SDS011;9839;53.364;-1.204;2024-03-07T00:32:54;40.30;;;16.90;;
19406;SDS011;9839;53.364;-1.204;2024-03-07T00:35:20;35.93;;;14.60;;
19406;SDS011;9839;53.364;-1.204;2024-03-07T00:37:46;34.20;;;15.37;;
19406;SDS011;9839;53.364;-1.204;2024-03-07T00:40:12;37.80;;;14.53;;
19406;SDS011;9839;53.364;-1.204;2024-03-07T00:42:38;35.63;;;15.13;;
19406;SDS011;9839;53.364;-1.204;2024-03-07T00:45:03;32.33;;;12.77;;
19406;SDS011;9839;53.364;-1.204;2024-03-07T00:47:29;31.83;;;13.10;;
19406;SDS011;9839;53.364;-1.204;2024-03-07T00:49:56;32.13;;;13.53;;
19406;SDS011;9839;53.364;-1.204;2024-03-07T00:52:21;36.40;;;14.10;;
19406;SDS011;9839;53.364;-1.204;2024-03-07T00:54:46;31.57;;;13.23;;
19406;SDS011;9839;53.364;-1.204;2024-03-07T00:57:12;30.93;;;12.70;;
19406;SDS011;9839;53.364;-1.204;2024-03-07T00:59:37;31.83;;;13.73;;
19406;SDS011;9839;53.364;-1.204;2024-03-07T01:02:02;30.53;;;13.43;;
19406;SDS011;9839;53.364;-1.204;2024-03-07T01:04:28;32.20;;;13.57;;
19406;SDS011;9839;53.364;-1.204;2024-03-07T01:06:59;36.90;;;14.70;;
19406;SDS011;9839;53.364;-1.204;2024-03-07T01:09:26;38.50;;;13.97;;
19406;SDS011;9839;53.364;-1.204;2024-03-07T01:11:53;29.00;;;13.33;;
19406;SDS011;9839;53.364;-1.204;2024-03-07T01:14:20;32.03;;;13.37;;
19406;SDS011;9839;53.364;-1.204;2024-03-07T01:16:45;36.23;;;15.10;;
19406;SDS011;9839;53.364;-1.204;2024-03-07T01:19:12;36.30;;;13.73;;
19406;SDS011;9839;53.364;-1.204;2024-03-07T01:21:38;52.57;;;17.33;;
19406;SDS011;9839;53.364;-1.204;2024-03-07T01:24:03;49.33;;;17.70;;
19406;SDS011;9839;53.364;-1.204;2024-03-07T01:26:29;60.17;;;18.03;;
19406;SDS011;9839;53.364;-1.204;2024-03-07T01:28:55;48.93;;;18.20;;
19406;SDS011;9839;53.364;-1.204;2024-03-07T01:31:22;45.90;;;17.00;;
19406;SDS011;9839;53.364;-1.204;2024-03-07T01:33:47;57.37;;;19.33;;
19406;SDS011;9839;53.364;-1.204;2024-03-07T01:36:13;71.57;;;20.13;;
19406;SDS011;9839;53.364;-1.204;2024-03-07T01:38:39;47.60;;;18.00;;
19406;SDS011;9839;53.364;-1.204;2024-03-07T01:41:04;49.00;;;17.63;;
19406;SDS011;9839;53.364;-1.204;2024-03-07T01:43:29;70.10;;;18.03;;
19406;SDS011;9839;53.364;-1.204;2024-03-07T01:45:56;128.73;;;18.93;;
19406;SDS011;9839;53.364;-1.204;2024-03-07T01:48:27;121.17;;;18.93;;
19406;SDS011;9839;53.364;-1.204;2024-03-07T01:50:56;62.67;;;16.83;;
19406;SDS011;9839;53.364;-1.204;2024-03-07T01:53:22;43.17;;;15.83;;
19406;SDS011;9839;53.364;-1.204;2024-03-07T01:55:50;44.33;;;16.57;;
19406;SDS011;9839;53.364;-1.204;2024-03-07T01:58:17;57.87;;;16.77;;
19406;SDS011;9839;53.364;-1.204;2024-03-07T02:00:43;95.70;;;17.83;;
19406;SDS011;9839;53.364;-1.204;2024-03-07T02:03:09;43.73;;;15.87;;
19406;SDS011;9839;53.364;-1.204;2024-03-07T02:05:34;57.33;;;16.03;;
19406;SDS011;9839;53.364;-1.204;2024-03-07T02:08:00;69.87;;;18.00;;
19406;SDS011;9839;53.364;-1.204;2024-03-07T02:10:26;53.93;;;17.70;;
19406;SDS011;9839;53.364;-1.204;2024-03-07T02:12:52;73.53;;;19.20;;
19406;SDS011;9839;53.364;-1.204;2024-03-07T02:15:17;73.80;;;20.83;;
19406;SDS011;9839;53.364;-1.204;2024-03-07T02:17:43;73.60;;;20.80;;
19406;SDS011;9839;53.364;-1.204;2024-03-07T02:20:09;86.70;;;21.97;;
19406;SDS011;9839;53.364;-1.204;2024-03-07T02:22:36;107.07;;;24.27;;
19406;SDS011;9839;53.364;-1.204;2024-03-07T02:25:02;101.27;;;22.63;;
19406;SDS011;9839;53.364;-1.204;2024-03-07T02:27:28;252.50;;;29.37;;
19406;SDS011;9839;53.364;-1.204;2024-03-07T02:29:53;84.90;;;23.10;;
19406;SDS011;9839;53.364;-1.204;2024-03-07T02:32:19;106.93;;;24.93;;
19406;SDS011;9839;53.364;-1.204;2024-03-07T02:34:44;100.93;;;23.33;;
19406;SDS011;9839;53.364;-1.204;2024-03-07T02:37:09;125.63;;;26.27;;
19406;SDS011;9839;53.364;-1.204;2024-03-07T02:39:36;76.37;;;22.30;;
19406;SDS011;9839;53.364;-1.204;2024-03-07T02:42:01;107.17;;;24.93;;
19406;SDS011;9839;53.364;-1.204;2024-03-07T02:44:27;86.93;;;22.93;;
19406;SDS011;9839;53.364;-1.204;2024-03-07T02:46:53;143.27;;;26.07;;
19406;SDS011;9839;53.364;-1.204;2024-03-07T02:49:19;111.57;;;25.20;;
19406;SDS011;9839;53.364;-1.204;2024-03-07T02:51:46;168.43;;;26.50;;
19406;SDS011;9839;53.364;-1.204;2024-03-07T02:54:12;130.60;;;25.13;;
19406;SDS011;9839;53.364;-1.204;2024-03-07T02:56:37;95.27;;;23.57;;
19406;SDS011;9839;53.364;-1.204;2024-03-07T02:59:03;171.13;;;27.27;;
19406;SDS011;9839;53.364;-1.204;2024-03-07T03:01:28;63.53;;;23.63;;
19406;SDS011;9839;53.364;-1.204;2024-03-07T03:03:53;109.47;;;25.17;;
19406;SDS011;9839;53.364;-1.204;2024-03-07T03:06:19;183.03;;;28.20;;
19406;SDS011;9839;53.364;-1.204;2024-03-07T03:08:47;210.63;;;29.17;;
19406;SDS011;9839;53.364;-1.204;2024-03-07T03:11:13;189.97;;;27.80;;
19406;SDS011;9839;53.364;-1.204;2024-03-07T03:13:41;86.33;;;24.10;;
19406;SDS011;9839;53.364;-1.204;2024-03-07T03:16:07;99.30;;;25.20;;
19406;SDS011;9839;53.364;-1.204;2024-03-07T03:18:33;145.53;;;25.43;;
19406;SDS011;9839;53.364;-1.204;2024-03-07T03:21:02;274.03;;;30.60;;
19406;SDS011;9839;53.364;-1.204;2024-03-07T03:23:28;180.30;;;28.10;;
19406;SDS011;9839;53.364;-1.204;2024-03-07T03:25:54;69.37;;;23.67;;
19406;SDS011;9839;53.364;-1.204;2024-03-07T03:28:20;84.17;;;20.87;;
19406;SDS011;9839;53.364;-1.204;2024-03-07T03:30:46;120.10;;;24.40;;
19406;SDS011;9839;53.364;-1.204;2024-03-07T03:33:12;95.47;;;23.97;;
19406;SDS011;9839;53.364;-1.204;2024-03-07T03:35:37;75.53;;;24.23;;
19406;SDS011;9839;53.364;-1.204;2024-03-07T03:38:03;72.17;;;24.07;;
19406;SDS011;9839;53.364;-1.204;2024-03-07T03:40:29;72.90;;;23.23;;
19406;SDS011;9839;53.364;-1.204;2024-03-07T03:42:55;64.13;;;22.93;;
19406;SDS011;9839;53.364;-1.204;2024-03-07T03:45:21;91.57;;;25.00;;
19406;SDS011;9839;53.364;-1.204;2024-03-07T03:47:46;97.50;;;24.03;;
19406;SDS011;9839;53.364;-1.204;2024-03-07T03:50:13;89.33;;;26.00;;
19406;SDS011;9839;53.364;-1.204;2024-03-07T03:52:39;94.73;;;23.50;;
19406;SDS011;9839;53.364;-1.204;2024-03-07T03:55:05;99.90;;;25.33;;
19406;SDS011;9839;53.364;-1.204;2024-03-07T03:57:31;125.07;;;24.47;;
19406;SDS011;9839;53.364;-1.204;2024-03-07T03:59:58;71.97;;;24.60;;
19406;SDS011;9839;53.364;-1.204;2024-03-07T04:02:24;173.10;;;25.93;;
19406;SDS011;9839;53.364;-1.204;2024-03-07T04:04:49;98.17;;;24.37;;
19406;SDS011;9839;53.364;-1.204;2024-03-07T04:07:16;72.37;;;21.63;;
19406;SDS011;9839;53.364;-1.204;2024-03-07T04:09:42;79.23;;;21.80;;
19406;SDS011;9839;53.364;-1.204;2024-03-07T04:12:08;85.77;;;23.37;;
19406;SDS011;9839;53.364;-1.204;2024-03-07T04:14:42;73.17;;;21.73;;
19406;SDS011;9839;53.364;-1.204;2024-03-07T04:17:08;64.60;;;21.33;;
19406;SDS011;9839;53.364;-1.204;2024-03-07T04:19:40;78.93;;;21.20;;
19406;SDS011;9839;53.364;-1.204;2024-03-07T04:22:06;82.90;;;22.03;;
19406;SDS011;9839;53.364;-1.204;2024-03-07T04:24:33;132.67;;;23.67;;
19406;SDS011;9839;53.364;-1.204;2024-03-07T04:26:59;97.03;;;21.00;;
19406;SDS011;9839;53.364;-1.204;2024-03-07T04:29:25;89.77;;;21.00;;
19406;SDS011;9839;53.364;-1.204;2024-03-07T04:31:51;63.93;;;20.30;;
19406;SDS011;9839;53.364;-1.204;2024-03-07T04:34:17;103.90;;;19.20;;
19406;SDS011;9839;53.364;-1.204;2024-03-07T04:36:42;78.07;;;19.07;;
19406;SDS011;9839;53.364;-1.204;2024-03-07T04:39:07;68.63;;;17.97;;
19406;SDS011;9839;53.364;-1.204;2024-03-07T04:41:39;106.73;;;19.17;;
19406;SDS011;9839;53.364;-1.204;2024-03-07T04:44:05;110.63;;;20.67;;
19406;SDS011;9839;53.364;-1.204;2024-03-07T04:46:30;61.50;;;18.03;;
19406;SDS011;9839;53.364;-1.204;2024-03-07T04:48:55;50.97;;;18.50;;
19406;SDS011;9839;53.364;-1.204;2024-03-07T04:51:22;53.53;;;18.93;;
19406;SDS011;9839;53.364;-1.204;2024-03-07T04:53:47;124.10;;;21.27;;
19406;SDS011;9839;53.364;-1.204;2024-03-07T04:56:13;125.17;;;22.20;;
19406;SDS011;9839;53.364;-1.204;2024-03-07T04:58:39;87.80;;;21.60;;
19406;SDS011;9839;53.364;-1.204;2024-03-07T05:01:04;84.30;;;19.80;;
19406;SDS011;9839;53.364;-1.204;2024-03-07T05:03:30;76.97;;;19.03;;
19406;SDS011;9839;53.364;-1.204;2024-03-07T05:05:55;113.83;;;20.03;;
19406;SDS011;9839;53.364;-1.204;2024-03-07T05:08:22;110.60;;;21.43;;
19406;SDS011;9839;53.364;-1.204;2024-03-07T05:10:47;174.50;;;22.97;;
19406;SDS011;9839;53.364;-1.204;2024-03-07T05:13:13;54.10;;;17.67;;
19406;SDS011;9839;53.364;-1.204;2024-03-07T05:15:38;63.60;;;19.13;;
19406;SDS011;9839;53.364;-1.204;2024-03-07T05:18:04;80.73;;;18.67;;
19406;SDS011;9839;53.364;-1.204;2024-03-07T05:20:29;64.63;;;19.10;;
19406;SDS011;9839;53.364;-1.204;2024-03-07T05:22:55;119.40;;;21.43;;
19406;SDS011;9839;53.364;-1.204;2024-03-07T05:25:20;84.73;;;18.93;;
19406;SDS011;9839;53.364;-1.204;2024-03-07T05:27:47;73.70;;;18.57;;
19406;SDS011;9839;53.364;-1.204;2024-03-07T05:30:15;127.87;;;20.27;;
19406;SDS011;9839;53.364;-1.204;2024-03-07T05:32:42;80.70;;;19.93;;
19406;SDS011;9839;53.364;-1.204;2024-03-07T05:35:07;119.20;;;19.20;;
19406;SDS011;9839;53.364;-1.204;2024-03-07T05:37:33;65.33;;;19.17;;
19406;SDS011;9839;53.364;-1.204;2024-03-07T05:39:58;58.80;;;17.77;;
19406;SDS011;9839;53.364;-1.204;2024-03-07T05:42:24;65.20;;;18.70;;
19406;SDS011;9839;53.364;-1.204;2024-03-07T05:44:51;134.73;;;21.10;;
19406;SDS011;9839;53.364;-1.204;2024-03-07T05:47:16;67.90;;;20.57;;
19406;SDS011;9839;53.364;-1.204;2024-03-07T05:49:42;98.83;;;19.60;;
19406;SDS011;9839;53.364;-1.204;2024-03-07T05:52:08;120.23;;;21.13;;
19406;SDS011;9839;53.364;-1.204;2024-03-07T05:54:34;91.07;;;20.73;;
19406;SDS011;9839;53.364;-1.204;2024-03-07T05:57:00;117.10;;;23.23;;
19406;SDS011;9839;53.364;-1.204;2024-03-07T05:59:25;55.97;;;18.97;;
19406;SDS011;9839;53.364;-1.204;2024-03-07T06:01:53;113.43;;;22.23;;
19406;SDS011;9839;53.364;-1.204;2024-03-07T06:04:19;128.23;;;21.47;;
19406;SDS011;9839;53.364;-1.204;2024-03-07T06:06:44;86.53;;;20.73;;
19406;SDS011;9839;53.364;-1.204;2024-03-07T06:09:12;145.43;;;23.07;;
19406;SDS011;9839;53.364;-1.204;2024-03-07T06:11:38;168.33;;;25.23;;
19406;SDS011;9839;53.364;-1.204;2024-03-07T06:14:07;71.70;;;19.70;;
19406;SDS011;9839;53.364;-1.204;2024-03-07T06:16:35;84.23;;;20.43;;
19406;SDS011;9839;53.364;-1.204;2024-03-07T06:19:01;240.57;;;26.37;;
19406;SDS011;9839;53.364;-1.204;2024-03-07T06:21:27;169.00;;;23.53;;
19406;SDS011;9839;53.364;-1.204;2024-03-07T06:23:54;183.77;;;23.70;;
19406;SDS011;9839;53.364;-1.204;2024-03-07T06:26:26;89.63;;;21.07;;
19406;SDS011;9839;53.364;-1.204;2024-03-07T06:29:24;193.73;;;22.73;;
19406;SDS011;9839;53.364;-1.204;2024-03-07T06:31:50;102.07;;;20.23;;
19406;SDS011;9839;53.364;-1.204;2024-03-07T06:34:15;159.70;;;23.17;;
19406;SDS011;9839;53.364;-1.204;2024-03-07T06:36:42;140.57;;;21.30;;
19406;SDS011;9839;53.364;-1.204;2024-03-07T06:39:08;67.30;;;17.67;;
19406;SDS011;9839;53.364;-1.204;2024-03-07T06:41:35;74.30;;;17.30;;
19406;SDS011;9839;53.364;-1.204;2024-03-07T06:44:01;158.73;;;20.97;;
19406;SDS011;9839;53.364;-1.204;2024-03-07T06:46:27;48.13;;;16.33;;
19406;SDS011;9839;53.364;-1.204;2024-03-07T06:48:53;80.30;;;17.40;;
19406;SDS011;9839;53.364;-1.204;2024-03-07T06:51:19;72.20;;;17.47;;
19406;SDS011;9839;53.364;-1.204;2024-03-07T06:53:44;50.17;;;16.17;;
19406;SDS011;9839;53.364;-1.204;2024-03-07T06:56:13;48.73;;;16.57;;
19406;SDS011;9839;53.364;-1.204;2024-03-07T06:58:39;51.40;;;16.23;;
19406;SDS011;9839;53.364;-1.204;2024-03-07T07:01:04;45.33;;;14.17;;
19406;SDS011;9839;53.364;-1.204;2024-03-07T07:03:34;41.10;;;14.43;;
19406;SDS011;9839;53.364;-1.204;2024-03-07T07:06:00;44.20;;;15.20;;
19406;SDS011;9839;53.364;-1.204;2024-03-07T07:08:26;46.20;;;13.67;;
19406;SDS011;9839;53.364;-1.204;2024-03-07T07:10:51;45.77;;;15.00;;
19406;SDS011;9839;53.364;-1.204;2024-03-07T07:13:19;48.17;;;15.00;;
19406;SDS011;9839;53.364;-1.204;2024-03-07T07:15:44;59.60;;;15.20;;
19406;SDS011;9839;53.364;-1.204;2024-03-07T07:18:10;72.37;;;15.17;;
19406;SDS011;9839;53.364;-1.204;2024-03-07T07:20:35;76.13;;;16.93;;
19406;SDS011;9839;53.364;-1.204;2024-03-07T07:23:01;58.90;;;15.50;;
19406;SDS011;9839;53.364;-1.204;2024-03-07T07:25:28;53.13;;;12.57;;
19406;SDS011;9839;53.364;-1.204;2024-03-07T07:27:54;51.77;;;13.03;;
19406;SDS011;9839;53.364;-1.204;2024-03-07T07:30:20;43.80;;;13.73;;
19406;SDS011;9839;53.364;-1.204;2024-03-07T07:32:47;45.07;;;12.73;;
19406;SDS011;9839;53.364;-1.204;2024-03-07T07:35:13;50.50;;;12.73;;
19406;SDS011;9839;53.364;-1.204;2024-03-07T07:37:49;46.93;;;11.97;;
19406;SDS011;9839;53.364;-1.204;2024-03-07T07:40:17;48.30;;;11.27;;
19406;SDS011;9839;53.364;-1.204;2024-03-07T07:42:44;37.27;;;10.70;;
19406;SDS011;9839;53.364;-1.204;2024-03-07T07:45:11;73.70;;;12.47;;
19406;SDS011;9839;53.364;-1.204;2024-03-07T07:47:41;51.00;;;12.53;;
19406;SDS011;9839;53.364;-1.204;2024-03-07T07:50:10;40.67;;;12.23;;
19406;SDS011;9839;53.364;-1.204;2024-03-07T07:55:15;50.27;;;11.60;;
19406;SDS011;9839;53.364;-1.204;2024-03-07T07:57:42;48.87;;;11.80;;
19406;SDS011;9839;53.364;-1.204;2024-03-07T08:00:10;41.33;;;12.43;;
19406;SDS011;9839;53.364;-1.204;2024-03-07T08:02:47;69.20;;;12.80;;
19406;SDS011;9839;53.364;-1.204;2024-03-07T08:05:16;41.07;;;12.57;;
19406;SDS011;9839;53.364;-1.204;2024-03-07T08:07:44;52.37;;;13.60;;
19406;SDS011;9839;53.364;-1.204;2024-03-07T08:10:10;57.33;;;13.60;;
19406;SDS011;9839;53.364;-1.204;2024-03-07T08:12:36;59.37;;;15.47;;
19406;SDS011;9839;53.364;-1.204;2024-03-07T08:15:03;53.40;;;15.63;;
19406;SDS011;9839;53.364;-1.204;2024-03-07T08:17:30;57.00;;;15.97;;
19406;SDS011;9839;53.364;-1.204;2024-03-07T08:19:56;54.77;;;14.33;;
19406;SDS011;9839;53.364;-1.204;2024-03-07T08:22:22;65.27;;;15.53;;
19406;SDS011;9839;53.364;-1.204;2024-03-07T08:24:47;54.23;;;14.13;;
19406;SDS011;9839;53.364;-1.204;2024-03-07T08:27:12;54.53;;;14.23;;
19406;SDS011;9839;53.364;-1.204;2024-03-07T08:29:38;66.93;;;15.37;;
19406;SDS011;9839;53.364;-1.204;2024-03-07T08:32:04;63.40;;;16.40;;
19406;SDS011;9839;53.364;-1.204;2024-03-07T08:34:30;68.10;;;15.40;;
19406;SDS011;9839;53.364;-1.204;2024-03-07T08:36:55;62.20;;;15.73;;
19406;SDS011;9839;53.364;-1.204;2024-03-07T08:39:21;56.03;;;15.13;;
19406;SDS011;9839;53.364;-1.204;2024-03-07T08:41:47;62.90;;;15.90;;
19406;SDS011;9839;53.364;-1.204;2024-03-07T08:44:12;67.20;;;16.23;;
19406;SDS011;9839;53.364;-1.204;2024-03-07T08:46:38;55.23;;;16.13;;
19406;SDS011;9839;53.364;-1.204;2024-03-07T08:49:04;54.47;;;14.73;;
19406;SDS011;9839;53.364;-1.204;2024-03-07T08:51:30;67.87;;;18.43;;
19406;SDS011;9839;53.364;-1.204;2024-03-07T08:53:55;56.50;;;16.13;;
19406;SDS011;9839;53.364;-1.204;2024-03-07T08:56:21;69.33;;;15.97;;
19406;SDS011;9839;53.364;-1.204;2024-03-07T08:58:47;73.23;;;17.23;;
19406;SDS011;9839;53.364;-1.204;2024-03-07T09:01:13;92.07;;;16.40;;
19406;SDS011;9839;53.364;-1.204;2024-03-07T09:03:38;70.50;;;16.70;;
19406;SDS011;9839;53.364;-1.204;2024-03-07T09:06:04;69.03;;;16.17;;
19406;SDS011;9839;53.364;-1.204;2024-03-07T09:08:30;55.90;;;15.27;;
19406;SDS011;9839;53.364;-1.204;2024-03-07T09:10:56;56.40;;;15.63;;
19406;SDS011;9839;53.364;-1.204;2024-03-07T09:13:22;70.37;;;15.53;;
19406;SDS011;9839;53.364;-1.204;2024-03-07T09:15:48;54.90;;;14.43;;
19406;SDS011;9839;53.364;-1.204;2024-03-07T09:18:13;46.83;;;12.67;;
19406;SDS011;9839;53.364;-1.204;2024-03-07T09:20:39;59.00;;;14.40;;
19406;SDS011;9839;53.364;-1.204;2024-03-07T09:23:05;53.20;;;13.73;;
19406;SDS011;9839;53.364;-1.204;2024-03-07T09:25:31;51.90;;;14.60;;
19406;SDS011;9839;53.364;-1.204;2024-03-07T09:27:58;45.83;;;13.97;;
19406;SDS011;9839;53.364;-1.204;2024-03-07T09:30:26;57.97;;;14.87;;
19406;SDS011;9839;53.364;-1.204;2024-03-07T09:32:53;50.77;;;15.27;;
19406;SDS011;9839;53.364;-1.204;2024-03-07T09:35:20;50.77;;;14.47;;
19406;SDS011;9839;53.364;-1.204;2024-03-07T09:37:46;51.00;;;15.80;;
19406;SDS011;9839;53.364;-1.204;2024-03-07T09:40:11;50.23;;;16.80;;
19406;SDS011;9839;53.364;-1.204;2024-03-07T09:42:41;50.27;;;15.83;;
19406;SDS011;9839;53.364;-1.204;2024-03-07T09:45:10;55.27;;;15.67;;
19406;SDS011;9839;53.364;-1.204;2024-03-07T09:47:39;52.97;;;15.20;;
19406;SDS011;9839;53.364;-1.204;2024-03-07T09:50:05;49.17;;;17.77;;
19406;SDS011;9839;53.364;-1.204;2024-03-07T09:52:33;55.40;;;16.30;;
19406;SDS011;9839;53.364;-1.204;2024-03-07T09:55:00;53.63;;;18.07;;
19406;SDS011;9839;53.364;-1.204;2024-03-07T09:57:25;58.13;;;17.67;;
19406;SDS011;9839;53.364;-1.204;2024-03-07T09:59:52;48.73;;;16.30;;
19406;SDS011;9839;53.364;-1.204;2024-03-07T10:02:19;51.77;;;16.73;;
19406;SDS011;9839;53.364;-1.204;2024-03-07T10:04:48;57.30;;;17.67;;
19406;SDS011;9839;53.364;-1.204;2024-03-07T10:07:16;47.70;;;17.23;;
19406;SDS011;9839;53.364;-1.204;2024-03-07T10:09:41;55.57;;;17.50;;
19406;SDS011;9839;53.364;-1.204;2024-03-07T10:12:07;57.27;;;17.47;;
19406;SDS011;9839;53.364;-1.204;2024-03-07T10:14:37;49.10;;;17.13;;
19406;SDS011;9839;53.364;-1.204;2024-03-07T10:17:03;51.63;;;15.73;;
19406;SDS011;9839;53.364;-1.204;2024-03-07T10:19:29;50.33;;;17.53;;
19406;SDS011;9839;53.364;-1.204;2024-03-07T10:21:55;50.00;;;18.67;;
19406;SDS011;9839;53.364;-1.204;2024-03-07T10:24:26;52.87;;;18.43;;
19406;SDS011;9839;53.364;-1.204;2024-03-07T10:26:53;41.63;;;17.00;;
19406;SDS011;9839;53.364;-1.204;2024-03-07T10:29:21;52.07;;;19.60;;
19406;SDS011;9839;53.364;-1.204;2024-03-07T10:31:48;53.23;;;19.00;;
19406;SDS011;9839;53.364;-1.204;2024-03-07T10:34:14;50.30;;;19.20;;
19406;SDS011;9839;53.364;-1.204;2024-03-07T10:36:40;53.80;;;19.23;;
19406;SDS011;9839;53.364;-1.204;2024-03-07T10:39:06;46.67;;;18.27;;
19406;SDS011;9839;53.364;-1.204;2024-03-07T10:41:44;54.23;;;19.03;;
19406;SDS011;9839;53.364;-1.204;2024-03-07T10:44:17;54.60;;;20.07;;
19406;SDS011;9839;53.364;-1.204;2024-03-07T10:46:46;57.23;;;18.27;;
19406;SDS011;9839;53.364;-1.204;2024-03-07T10:49:18;50.43;;;20.00;;
19406;SDS011;9839;53.364;-1.204;2024-03-07T10:51:49;59.70;;;21.17;;
19406;SDS011;9839;53.364;-1.204;2024-03-07T10:54:34;73.73;;;21.20;;
19406;SDS011;9839;53.364;-1.204;2024-03-07T10:57:27;64.03;;;22.27;;
19406;SDS011;9839;53.364;-1.204;2024-03-07T10:59:58;66.63;;;23.43;;
19406;SDS011;9839;53.364;-1.204;2024-03-07T11:02:33;66.77;;;22.00;;
19406;SDS011;9839;53.364;-1.204;2024-03-07T11:05:20;75.80;;;23.57;;
19406;SDS011;9839;53.364;-1.204;2024-03-07T11:07:49;64.50;;;22.10;;
19406;SDS011;9839;53.364;-1.204;2024-03-07T11:10:15;82.20;;;25.30;;
19406;SDS011;9839;53.364;-1.204;2024-03-07T11:12:42;72.03;;;24.73;;
19406;SDS011;9839;53.364;-1.204;2024-03-07T11:15:09;84.07;;;26.10;;
19406;SDS011;9839;53.364;-1.204;2024-03-07T11:17:44;88.37;;;25.67;;
19406;SDS011;9839;53.364;-1.204;2024-03-07T11:22:49;74.27;;;25.03;;
19406;SDS011;9839;53.364;-1.204;2024-03-07T11:25:17;90.83;;;26.90;;
19406;SDS011;9839;53.364;-1.204;2024-03-07T11:30:20;89.57;;;26.43;;
19406;SDS011;9839;53.364;-1.204;2024-03-07T11:32:47;87.40;;;26.77;;
19406;SDS011;9839;53.364;-1.204;2024-03-07T11:35:14;94.60;;;28.03;;
19406;SDS011;9839;53.364;-1.204;2024-03-07T11:37:41;85.23;;;27.70;;
19406;SDS011;9839;53.364;-1.204;2024-03-07T11:42:49;89.97;;;26.50;;
19406;SDS011;9839;53.364;-1.204;2024-03-07T11:45:16;80.07;;;27.90;;
19406;SDS011;9839;53.364;-1.204;2024-03-07T11:47:52;76.33;;;25.77;;
19406;SDS011;9839;53.364;-1.204;2024-03-07T11:50:36;82.93;;;25.87;;
19406;SDS011;9839;53.364;-1.204;2024-03-07T11:53:03;79.60;;;27.20;;
19406;SDS011;9839;53.364;-1.204;2024-03-07T11:55:33;84.47;;;26.23;;
19406;SDS011;9839;53.364;-1.204;2024-03-07T11:58:07;77.23;;;25.83;;
19406;SDS011;9839;53.364;-1.204;2024-03-07T12:00:56;80.10;;;25.97;;
19406;SDS011;9839;53.364;-1.204;2024-03-07T12:03:23;77.40;;;27.47;;
19406;SDS011;9839;53.364;-1.204;2024-03-07T12:05:50;73.87;;;25.80;;
19406;SDS011;9839;53.364;-1.204;2024-03-07T12:08:18;81.20;;;28.13;;
19406;SDS011;9839;53.364;-1.204;2024-03-07T12:10:47;78.07;;;26.67;;
19406;SDS011;9839;53.364;-1.204;2024-03-07T12:13:14;69.77;;;24.80;;
19406;SDS011;9839;53.364;-1.204;2024-03-07T12:15:44;75.03;;;26.90;;
19406;SDS011;9839;53.364;-1.204;2024-03-07T12:18:10;76.30;;;25.57;;
19406;SDS011;9839;53.364;-1.204;2024-03-07T12:20:39;68.93;;;25.90;;
19406;SDS011;9839;53.364;-1.204;2024-03-07T12:23:06;69.53;;;25.27;;
19406;SDS011;9839;53.364;-1.204;2024-03-07T12:25:37;70.70;;;25.67;;
19406;SDS011;9839;53.364;-1.204;2024-03-07T12:28:10;63.33;;;24.57;;
19406;SDS011;9839;53.364;-1.204;2024-03-07T12:33:11;66.37;;;25.33;;
19406;SDS011;9839;53.364;-1.204;2024-03-07T12:35:39;57.63;;;22.60;;
19406;SDS011;9839;53.364;-1.204;2024-03-07T12:38:07;61.47;;;25.23;;
19406;SDS011;9839;53.364;-1.204;2024-03-07T12:40:35;51.97;;;21.70;;
19406;SDS011;9839;53.364;-1.204;2024-03-07T12:43:02;55.63;;;22.57;;
19406;SDS011;9839;53.364;-1.204;2024-03-07T12:45:37;58.63;;;21.43;;
19406;SDS011;9839;53.364;-1.204;2024-03-07T12:48:03;59.80;;;23.40;;
19406;SDS011;9839;53.364;-1.204;2024-03-07T12:50:29;48.23;;;21.00;;
19406;SDS011;9839;53.364;-1.204;2024-03-07T12:52:55;51.33;;;20.37;;
19406;SDS011;9839;53.364;-1.204;2024-03-07T12:55:20;51.70;;;22.07;;
19406;SDS011;9839;53.364;-1.204;2024-03-07T12:57:48;55.30;;;22.30;;
19406;SDS011;9839;53.364;-1.204;2024-03-07T13:00:15;52.10;;;20.77;;
19406;SDS011;9839;53.364;-1.204;2024-03-07T13:02:46;53.77;;;21.43;;
19406;SDS011;9839;53.364;-1.204;2024-03-07T13:05:12;44.63;;;18.67;;
19406;SDS011;9839;53.364;-1.204;2024-03-07T13:07:46;42.00;;;17.93;;
19406;SDS011;9839;53.364;-1.204;2024-03-07T13:10:12;41.17;;;17.43;;
19406;SDS011;9839;53.364;-1.204;2024-03-07T13:12:44;48.33;;;17.53;;
19406;SDS011;9839;53.364;-1.204;2024-03-07T13:15:11;41.33;;;17.30;;
19406;SDS011;9839;53.364;-1.204;2024-03-07T13:17:37;38.17;;;17.07;;
19406;SDS011;9839;53.364;-1.204;2024-03-07T13:20:02;38.87;;;17.07;;
19406;SDS011;9839;53.364;-1.204;2024-03-07T13:22:36;37.37;;;16.97;;
19406;SDS011;9839;53.364;-1.204;2024-03-07T13:25:07;38.53;;;14.80;;
19406;SDS011;9839;53.364;-1.204;2024-03-07T13:27:39;41.67;;;16.43;;
19406;SDS011;9839;53.364;-1.204;2024-03-07T13:30:06;40.13;;;16.00;;
19406;SDS011;9839;53.364;-1.204;2024-03-07T13:32:32;40.13;;;16.53;;
19406;SDS011;9839;53.364;-1.204;2024-03-07T13:34:57;40.77;;;16.63;;
19406;SDS011;9839;53.364;-1.204;2024-03-07T13:37:26;43.40;;;17.13;;
19406;SDS011;9839;53.364;-1.204;2024-03-07T13:39:52;41.17;;;15.40;;
19406;SDS011;9839;53.364;-1.204;2024-03-07T13:42:17;36.93;;;16.20;;
19406;SDS011;9839;53.364;-1.204;2024-03-07T13:44:43;38.03;;;15.60;;
19406;SDS011;9839;53.364;-1.204;2024-03-07T13:47:09;43.67;;;17.50;;
19406;SDS011;9839;53.364;-1.204;2024-03-07T13:49:35;43.37;;;17.03;;
19406;SDS011;9839;53.364;-1.204;2024-03-07T13:52:03;38.00;;;16.43;;
19406;SDS011;9839;53.364;-1.204;2024-03-07T13:54:35;39.60;;;16.23;;
19406;SDS011;9839;53.364;-1.204;2024-03-07T14:31:41;47.87;;;17.93;;
19406;SDS011;9839;53.364;-1.204;2024-03-07T14:34:14;48.43;;;18.53;;
19406;SDS011;9839;53.364;-1.204;2024-03-07T14:36:47;44.50;;;19.27;;
19406;SDS011;9839;53.364;-1.204;2024-03-07T14:39:15;49.13;;;21.37;;
19406;SDS011;9839;53.364;-1.204;2024-03-07T14:41:51;49.23;;;21.60;;
19406;SDS011;9839;53.364;-1.204;2024-03-07T14:44:19;47.63;;;20.90;;
19406;SDS011;9839;53.364;-1.204;2024-03-07T14:46:45;52.33;;;20.73;;
19406;SDS011;9839;53.364;-1.204;2024-03-07T14:49:13;50.00;;;21.93;;
19406;SDS011;9839;53.364;-1.204;2024-03-07T14:51:41;50.43;;;21.37;;
19406;SDS011;9839;53.364;-1.204;2024-03-07T14:54:07;48.93;;;21.70;;
19406;SDS011;9839;53.364;-1.204;2024-03-07T14:56:33;52.73;;;20.60;;
19406;SDS011;9839;53.364;-1.204;2024-03-07T14:58:59;48.83;;;21.40;;
19406;SDS011;9839;53.364;-1.204;2024-03-07T15:01:26;53.40;;;21.33;;
19406;SDS011;9839;53.364;-1.204;2024-03-07T15:03:52;50.03;;;20.30;;
19406;SDS011;9839;53.364;-1.204;2024-03-07T15:06:18;51.43;;;22.13;;